createdAt,value
2022-12-12T00:00:41.790Z,72.15
2022-12-12T00:03:08.320Z,76.38
2022-12-12T00:05:34.934Z,73.90
2022-12-12T00:08:01.394Z,71.03
2022-12-12T00:10:28.123Z,71.30
2022-12-12T00:12:54.532Z,71.20
2022-12-12T00:15:21.338Z,70.63
2022-12-12T00:17:47.830Z,71.18
2022-12-12T00:20:14.211Z,66.38
2022-12-12T00:22:40.966Z,71.32
2022-12-12T00:25:07.429Z,70.82
2022-12-12T00:27:34.055Z,70.38
2022-12-12T00:30:00.562Z,71.75
2022-12-12T00:32:26.971Z,69.65
2022-12-12T00:34:53.416Z,66.22
2022-12-12T00:37:19.800Z,71.60
2022-12-12T00:39:46.522Z,69.38
2022-12-12T00:42:12.993Z,63.97
2022-12-12T00:44:39.844Z,66.32
2022-12-12T00:47:06.420Z,68.65
2022-12-12T00:49:32.833Z,67.70
2022-12-12T00:51:59.284Z,76.15
2022-12-12T00:54:25.770Z,73.22
2022-12-12T00:56:52.142Z,76.90
2022-12-12T00:59:19.854Z,73.45
2022-12-12T01:01:46.850Z,68.97
2022-12-12T01:04:13.449Z,74.28
2022-12-12T01:06:39.889Z,68.95
2022-12-12T01:09:06.318Z,66.57
2022-12-12T01:11:32.822Z,70.72
2022-12-12T01:13:59.291Z,74.10
2022-12-12T01:16:26.024Z,71.95
2022-12-12T01:18:52.639Z,75.07
2022-12-12T01:21:20.546Z,74.07
2022-12-12T01:23:47.355Z,69.57
2022-12-12T01:26:17.432Z,70.63
2022-12-12T01:28:45.031Z,75.68
2022-12-12T01:31:11.681Z,73.32
2022-12-12T01:33:38.699Z,77.55
2022-12-12T01:36:06.084Z,74.47
2022-12-12T01:38:32.709Z,73.68
2022-12-12T01:40:59.120Z,77.53
2022-12-12T01:43:25.726Z,73.55
2022-12-12T01:45:58.134Z,79.18
2022-12-12T01:50:57.847Z,71.53
2022-12-12T01:53:25.738Z,69.38
2022-12-12T01:55:52.461Z,72.95
2022-12-12T01:58:19.016Z,76.35
2022-12-12T02:00:45.992Z,69.55
2022-12-12T02:03:12.507Z,71.78
2022-12-12T02:05:42.552Z,69.68
2022-12-12T02:08:09.798Z,75.93
2022-12-12T02:10:36.357Z,74.22
2022-12-12T02:13:09.758Z,69.55
2022-12-12T02:15:46.358Z,69.57
2022-12-12T02:18:52.934Z,69.70
2022-12-12T02:21:23.421Z,71.55
2022-12-12T02:23:58.882Z,76.13
2022-12-12T02:26:55.967Z,79.53
2022-12-12T02:29:46.792Z,74.47
2022-12-12T02:32:22.878Z,72.75
2022-12-12T02:35:18.905Z,76.05
2022-12-12T02:38:04.012Z,77.57
2022-12-12T02:40:36.082Z,76.63
2022-12-12T02:43:11.720Z,71.63
2022-12-12T02:45:46.082Z,73.25
2022-12-12T02:48:19.142Z,75.30
2022-12-12T02:54:26.603Z,75.80
2022-12-12T02:56:58.394Z,70.53
2022-12-12T02:59:58.287Z,72.32
2022-12-12T03:02:52.667Z,80.10
2022-12-12T03:05:57.308Z,79.47
2022-12-12T03:08:55.910Z,71.43
2022-12-12T03:11:42.087Z,80.97
2022-12-12T03:14:24.054Z,74.45
2022-12-12T03:17:11.410Z,73.20
2022-12-12T03:20:15.749Z,70.32
2022-12-12T03:22:46.008Z,76.05
2022-12-12T03:25:39.108Z,75.70
2022-12-12T03:28:10.803Z,76.15
2022-12-12T03:30:41.757Z,72.85
2022-12-12T03:33:11.222Z,77.25
2022-12-12T03:35:41.751Z,71.82
2022-12-12T03:38:17.504Z,75.18
2022-12-12T03:40:47.745Z,75.68
2022-12-12T03:43:24.325Z,76.07
2022-12-12T03:46:16.273Z,69.85
2022-12-12T03:49:11.074Z,72.87
2022-12-12T03:51:40.021Z,67.70
2022-12-12T03:54:19.933Z,72.68
2022-12-12T03:56:57.344Z,75.07
2022-12-12T03:59:32.549Z,70.63
2022-12-12T04:02:06.889Z,76.40
2022-12-12T04:04:51.659Z,75.07
2022-12-12T04:07:26.761Z,76.72
2022-12-12T04:10:12.062Z,76.03
2022-12-12T04:13:03.325Z,70.57
2022-12-12T04:15:58.226Z,72.60
2022-12-12T04:18:57.156Z,68.88
2022-12-12T04:21:56.613Z,66.88
2022-12-12T04:24:46.689Z,73.30
2022-12-12T04:27:22.519Z,72.70
2022-12-12T04:29:54.383Z,74.30
2022-12-12T04:32:32.705Z,73.95
2022-12-12T04:35:06.400Z,77.28
2022-12-12T04:37:41.887Z,69.25
2022-12-12T04:40:11.432Z,68.00
2022-12-12T04:42:42.667Z,73.22
2022-12-12T04:45:14.546Z,69.45
2022-12-12T04:47:43.728Z,72.32
2022-12-12T04:50:10.665Z,68.78
2022-12-12T04:52:38.787Z,69.47
2022-12-12T04:55:15.710Z,63.95
2022-12-12T04:57:48.490Z,70.55
2022-12-12T05:00:15.387Z,71.80
2022-12-12T05:03:04.003Z,69.53
2022-12-12T05:05:44.113Z,68.85
2022-12-12T05:08:25.187Z,70.20
2022-12-12T05:10:55.841Z,67.07
2022-12-12T05:13:24.739Z,67.65
2022-12-12T05:15:53.687Z,69.68
2022-12-12T05:18:20.789Z,63.95
2022-12-12T05:20:47.222Z,69.03
2022-12-12T05:23:13.677Z,74.18
2022-12-12T05:25:40.144Z,62.78
2022-12-12T05:28:06.655Z,66.28
2022-12-12T05:30:33.558Z,74.10
2022-12-12T05:33:00.095Z,68.82
2022-12-12T05:35:27.029Z,73.88
2022-12-12T05:37:53.670Z,75.15
2022-12-12T05:40:21.023Z,67.40
2022-12-12T05:42:48.175Z,71.35
2022-12-12T05:45:15.301Z,69.78
2022-12-12T05:47:41.924Z,67.40
2022-12-12T05:50:08.608Z,73.43
2022-12-12T05:52:35.062Z,68.82
2022-12-12T05:55:01.646Z,68.18
2022-12-12T05:57:28.085Z,66.28
2022-12-12T05:59:54.568Z,66.93
2022-12-12T06:02:21.476Z,62.42
2022-12-12T06:04:47.977Z,67.63
2022-12-12T06:07:14.412Z,66.75
2022-12-12T06:09:40.877Z,64.88
2022-12-12T06:12:07.384Z,67.55
2022-12-12T06:14:33.882Z,73.60
2022-12-12T06:17:00.560Z,76.07
2022-12-12T06:19:27.065Z,70.82
2022-12-12T06:21:53.572Z,75.50
2022-12-12T06:24:20.109Z,67.70
2022-12-12T06:26:46.538Z,67.60
2022-12-12T06:29:14.811Z,65.43
2022-12-12T06:31:41.371Z,70.35
2022-12-12T06:34:07.873Z,67.25
2022-12-12T06:36:34.415Z,60.28
2022-12-12T06:39:01.579Z,64.90
2022-12-12T06:41:30.114Z,67.55
2022-12-12T06:43:56.913Z,73.97
2022-12-12T06:46:27.672Z,64.13
2022-12-12T06:48:55.898Z,62.80
2022-12-12T06:51:25.188Z,69.35
2022-12-12T06:53:52.707Z,68.93
2022-12-12T06:56:22.008Z,61.58
2022-12-12T06:58:48.692Z,72.05
2022-12-12T07:01:19.113Z,75.03
2022-12-12T07:03:46.103Z,62.75
2022-12-12T07:06:12.906Z,68.30
2022-12-12T07:08:39.452Z,66.43
2022-12-12T07:11:14.035Z,72.70
2022-12-12T07:13:40.753Z,71.07
2022-12-12T07:16:07.597Z,72.38
2022-12-12T07:18:34.991Z,69.90
2022-12-12T07:21:05.493Z,65.20
2022-12-12T07:23:32.140Z,83.82
2022-12-12T07:25:58.726Z,77.03
2022-12-12T07:28:25.379Z,72.95
2022-12-12T07:30:51.871Z,68.30
2022-12-12T07:33:18.486Z,67.95
2022-12-12T07:35:45.168Z,74.07
2022-12-12T07:38:11.949Z,73.05
2022-12-12T07:40:38.660Z,77.53
2022-12-12T07:43:05.274Z,71.15
2022-12-12T07:45:31.765Z,72.60
2022-12-12T07:47:58.494Z,100.38
2022-12-12T07:50:24.999Z,88.35
2022-12-12T07:52:51.669Z,75.60
2022-12-12T07:55:18.340Z,68.88
2022-12-12T07:57:44.857Z,65.32
2022-12-12T08:00:14.630Z,71.90
2022-12-12T08:02:41.399Z,62.03
2022-12-12T08:05:08.716Z,139.30
2022-12-12T08:07:35.412Z,170.35
2022-12-12T08:10:01.908Z,148.30
2022-12-12T08:12:32.208Z,103.63
2022-12-12T08:14:58.830Z,77.45
2022-12-12T08:17:25.658Z,76.38
2022-12-12T08:19:52.296Z,74.30
2022-12-12T08:22:19.166Z,78.25
2022-12-12T08:24:45.769Z,75.35
2022-12-12T08:27:15.476Z,77.28
2022-12-12T08:29:43.003Z,78.57
2022-12-12T08:32:09.535Z,74.70
2022-12-12T08:34:36.215Z,72.57
2022-12-12T08:37:02.682Z,72.60
2022-12-12T08:39:29.128Z,77.60
2022-12-12T08:41:55.608Z,69.63
2022-12-12T08:44:22.308Z,71.95
2022-12-12T08:46:49.120Z,75.07
2022-12-12T08:49:15.758Z,84.82
2022-12-12T08:51:42.267Z,103.95
2022-12-12T08:54:11.076Z,99.68
2022-12-12T08:56:37.622Z,86.80
2022-12-12T08:59:04.529Z,85.93
2022-12-12T09:01:31.180Z,104.57
2022-12-12T09:03:58.311Z,92.82
2022-12-12T09:06:25.963Z,82.43
2022-12-12T09:08:52.934Z,99.22
2022-12-12T09:11:20.410Z,93.63
2022-12-12T09:13:46.910Z,92.70
2022-12-12T09:16:13.537Z,92.35
2022-12-12T09:18:47.722Z,87.35
2022-12-12T09:21:15.580Z,87.05
2022-12-12T09:23:42.063Z,84.22
2022-12-12T09:26:09.475Z,84.20
2022-12-12T09:28:36.093Z,95.47
2022-12-12T09:31:10.177Z,93.35
2022-12-12T09:33:36.761Z,87.22
2022-12-12T09:36:05.644Z,92.50
2022-12-12T09:38:32.212Z,151.05
2022-12-12T09:41:02.479Z,138.70
2022-12-12T09:43:32.348Z,105.60
2022-12-12T09:46:00.217Z,107.18
2022-12-12T09:48:35.448Z,105.18
2022-12-12T09:51:01.861Z,101.75
2022-12-12T09:53:28.729Z,94.85
2022-12-12T09:56:03.328Z,85.90
2022-12-12T09:58:33.937Z,91.88
2022-12-12T10:01:12.539Z,93.70
2022-12-12T10:03:45.354Z,86.78
2022-12-12T10:09:23.378Z,79.05
2022-12-12T10:11:50.718Z,80.22
2022-12-12T10:14:37.845Z,79.07
2022-12-12T10:17:08.207Z,76.35
2022-12-12T10:19:48.736Z,75.50
2022-12-12T10:22:24.443Z,74.35
2022-12-12T10:25:08.882Z,74.65
2022-12-12T10:27:35.385Z,72.53
2022-12-12T10:30:15.393Z,76.47
2022-12-12T10:33:03.406Z,75.05
2022-12-12T10:35:38.779Z,73.13
2022-12-12T10:38:31.674Z,74.15
2022-12-12T10:45:53.082Z,76.18
2022-12-12T10:48:19.909Z,80.57
2022-12-12T10:50:52.137Z,77.00
2022-12-12T10:53:19.756Z,75.10
2022-12-12T10:56:14.010Z,76.85
2022-12-12T10:58:42.841Z,69.32
2022-12-12T11:01:24.965Z,77.00
2022-12-12T11:04:00.546Z,79.88
2022-12-12T11:06:37.442Z,78.10
2022-12-12T11:09:17.423Z,76.18
2022-12-12T11:12:15.926Z,71.82
2022-12-12T11:15:04.516Z,70.72
2022-12-12T11:17:32.282Z,70.90
2022-12-12T11:20:01.269Z,75.63
2022-12-12T11:22:32.337Z,74.05
2022-12-12T11:24:59.157Z,72.38
2022-12-12T11:27:28.894Z,70.15
2022-12-12T11:29:59.950Z,73.32
2022-12-12T11:32:29.554Z,71.88
2022-12-12T11:34:58.838Z,67.22
2022-12-12T11:37:29.095Z,75.18
2022-12-12T11:39:56.824Z,68.68
2022-12-12T11:42:26.776Z,70.32
2022-12-12T11:45:04.983Z,78.07
2022-12-12T11:47:39.054Z,75.82
2022-12-12T11:50:44.669Z,73.07
2022-12-12T11:53:11.080Z,77.38
2022-12-12T11:55:49.328Z,81.47
2022-12-12T11:58:28.394Z,79.75
2022-12-12T12:01:05.843Z,78.35
2022-12-12T12:04:09.925Z,75.80
2022-12-12T12:06:54.527Z,75.07
2022-12-12T12:09:58.230Z,73.72
2022-12-12T12:12:32.260Z,73.82
2022-12-12T12:15:14.302Z,74.70
2022-12-12T12:17:57.875Z,74.25
2022-12-12T12:20:49.164Z,75.72
2022-12-12T12:23:41.197Z,68.30
2022-12-12T12:26:23.677Z,69.78
2022-12-12T12:29:18.519Z,77.30
2022-12-12T12:31:58.488Z,68.57
2022-12-12T12:34:28.901Z,63.55
2022-12-12T12:37:13.659Z,69.53
2022-12-12T12:40:14.955Z,66.63
2022-12-12T12:43:10.535Z,61.83
2022-12-12T12:45:49.178Z,58.03
2022-12-12T12:48:25.068Z,62.95
2022-12-12T12:51:22.351Z,60.13
2022-12-12T12:54:07.892Z,62.33
2022-12-12T12:56:43.696Z,60.13
2022-12-12T12:59:16.051Z,65.15
2022-12-12T13:01:45.017Z,63.22
2022-12-12T13:04:13.199Z,54.55
2022-12-12T13:07:08.040Z,56.35
2022-12-12T13:09:54.582Z,56.30
2022-12-12T13:12:40.266Z,60.30
2022-12-12T13:15:17.337Z,62.80
2022-12-12T13:17:48.361Z,60.92
2022-12-12T13:20:20.953Z,58.53
2022-12-12T13:23:18.427Z,62.10
2022-12-12T13:25:54.764Z,59.28
2022-12-12T13:28:25.364Z,54.72
2022-12-12T13:31:33.468Z,54.38
2022-12-12T13:34:09.071Z,53.63
2022-12-12T13:36:38.404Z,52.92
2022-12-12T13:39:07.037Z,56.05
2022-12-12T13:42:08.539Z,59.63
2022-12-12T13:44:38.164Z,56.80
2022-12-12T13:47:22.843Z,51.90
2022-12-12T13:49:56.625Z,53.72
2022-12-12T13:52:28.749Z,58.63
2022-12-12T13:55:17.794Z,59.33
2022-12-12T13:57:59.935Z,57.25
2022-12-12T14:00:37.067Z,61.53
2022-12-12T14:03:20.322Z,55.47
2022-12-12T14:05:48.805Z,62.92
2022-12-12T14:08:15.291Z,56.70
2022-12-12T14:10:55.421Z,58.97
2022-12-12T14:13:21.712Z,58.35
2022-12-12T14:15:57.334Z,58.45
2022-12-12T14:18:33.984Z,57.30
2022-12-12T14:21:03.500Z,62.20
2022-12-12T14:23:35.528Z,56.10
2022-12-12T14:26:02.160Z,57.00
2022-12-12T14:28:34.328Z,58.42
2022-12-12T14:31:11.631Z,54.80
2022-12-12T14:34:10.361Z,57.25
2022-12-12T14:36:46.722Z,61.50
2022-12-12T14:39:25.415Z,57.42
2022-12-12T14:41:53.107Z,55.60
2022-12-12T14:44:37.742Z,54.95
2022-12-12T14:47:09.053Z,59.10
2022-12-12T14:49:35.514Z,62.00
2022-12-12T14:52:02.144Z,64.68
2022-12-12T14:54:28.714Z,56.22
2022-12-12T14:56:58.927Z,56.60
2022-12-12T14:59:33.569Z,61.05
2022-12-12T15:02:07.368Z,60.92
2022-12-12T15:04:38.681Z,59.63
2022-12-12T15:07:07.463Z,60.38
2022-12-12T15:09:38.900Z,58.00
2022-12-12T15:12:35.578Z,62.08
2022-12-12T15:15:02.641Z,60.85
2022-12-12T15:17:30.507Z,62.78
2022-12-12T15:20:03.235Z,62.63
2022-12-12T15:22:39.301Z,60.40
2022-12-12T15:25:26.526Z,59.05
2022-12-12T15:27:56.295Z,67.75
2022-12-12T15:30:36.758Z,63.80
2022-12-12T15:33:06.425Z,63.50
2022-12-12T15:35:32.849Z,62.08
2022-12-12T15:38:00.452Z,64.38
2022-12-12T15:40:32.726Z,64.93
2022-12-12T15:43:02.626Z,58.70
2022-12-12T15:46:00.378Z,65.80
2022-12-12T15:48:27.918Z,65.57
2022-12-12T15:50:59.190Z,60.95
2022-12-12T15:53:27.168Z,66.57
2022-12-12T15:56:12.525Z,62.65
2022-12-12T15:58:49.774Z,62.35
2022-12-12T16:01:20.994Z,67.55
2022-12-12T16:04:00.503Z,63.45
2022-12-12T16:06:32.335Z,69.85
2022-12-12T16:09:10.860Z,71.40
2022-12-12T16:11:43.363Z,65.00
2022-12-12T16:17:03.955Z,70.07
2022-12-12T16:19:57.641Z,74.10
2022-12-12T16:22:32.200Z,68.85
2022-12-12T16:25:22.838Z,70.65
2022-12-12T16:28:12.465Z,72.63
2022-12-12T16:30:40.821Z,71.63
2022-12-12T16:33:24.011Z,75.38
2022-12-12T16:35:50.380Z,72.22
2022-12-12T16:38:17.581Z,70.00
2022-12-12T16:40:45.503Z,78.47
2022-12-12T16:43:14.239Z,65.85
2022-12-12T16:45:41.035Z,69.93
2022-12-12T16:48:13.889Z,72.13
2022-12-12T16:50:40.292Z,71.72
2022-12-12T16:53:06.664Z,74.45
2022-12-12T16:55:36.052Z,78.40
2022-12-12T16:58:02.457Z,74.45
2022-12-12T17:00:28.844Z,74.28
2022-12-12T17:02:55.522Z,80.05
2022-12-12T17:05:24.266Z,71.25
2022-12-12T17:07:51.923Z,69.10
2022-12-12T17:10:19.591Z,70.18
2022-12-12T17:12:46.127Z,70.40
2022-12-12T17:15:14.653Z,72.25
2022-12-12T17:17:41.075Z,66.03
2022-12-12T17:20:07.921Z,72.85
2022-12-12T17:22:34.297Z,69.03
2022-12-12T17:25:00.662Z,74.90
2022-12-12T17:27:27.050Z,71.82
2022-12-12T17:29:53.425Z,79.95
2022-12-12T17:32:24.266Z,82.03
2022-12-12T17:34:51.157Z,71.22
2022-12-12T17:37:17.616Z,69.82
2022-12-12T17:39:44.034Z,78.20
2022-12-12T17:42:10.510Z,74.50
2022-12-12T17:44:36.921Z,68.65
2022-12-12T17:47:03.531Z,78.63
2022-12-12T17:49:30.025Z,82.65
2022-12-12T17:51:56.446Z,80.57
2022-12-12T17:54:22.888Z,85.82
2022-12-12T17:56:49.475Z,80.05
2022-12-12T17:59:15.842Z,84.18
2022-12-12T18:01:42.268Z,83.07
2022-12-12T18:04:09.078Z,75.38
2022-12-12T18:06:36.355Z,78.75
2022-12-12T18:09:03.693Z,78.47
2022-12-12T18:11:32.959Z,80.32
2022-12-12T18:14:04.486Z,78.47
2022-12-12T18:16:32.211Z,84.63
2022-12-12T18:18:59.423Z,80.20
2022-12-12T18:21:59.156Z,80.80
2022-12-12T18:24:16.058Z,80.78
2022-12-12T18:26:42.528Z,85.18
2022-12-12T18:29:09.246Z,93.57
2022-12-12T18:31:36.043Z,89.63
2022-12-12T18:34:02.578Z,87.10
2022-12-12T18:36:30.607Z,85.05
2022-12-12T18:38:58.285Z,90.13
2022-12-12T18:41:26.247Z,81.75
2022-12-12T18:43:52.993Z,83.55
2022-12-12T18:46:21.144Z,88.88
2022-12-12T18:48:48.295Z,83.10
2022-12-12T18:51:20.419Z,86.80
2022-12-12T18:53:46.943Z,80.22
2022-12-12T18:56:20.148Z,85.65
2022-12-12T18:58:46.534Z,83.90
2022-12-12T19:01:15.740Z,79.72
2022-12-12T19:03:43.472Z,83.10
2022-12-12T19:06:12.566Z,77.93
2022-12-12T19:08:40.040Z,77.25
2022-12-12T19:11:07.405Z,74.38
2022-12-12T19:13:34.039Z,67.53
2022-12-12T19:16:09.863Z,50.63
2022-12-12T19:18:36.573Z,54.42
2022-12-12T19:21:07.727Z,52.58
2022-12-12T19:23:34.396Z,55.75
2022-12-12T19:26:14.624Z,61.78
2022-12-12T19:28:41.668Z,65.47
2022-12-12T19:31:15.095Z,70.40
2022-12-12T19:33:44.327Z,73.10
2022-12-12T19:36:16.548Z,69.80
2022-12-12T19:38:43.721Z,72.53
2022-12-12T19:41:11.257Z,69.28
2022-12-12T19:43:37.771Z,64.53
2022-12-12T19:46:09.560Z,65.93
2022-12-12T19:48:36.475Z,66.90
2022-12-12T19:51:13.749Z,69.50
2022-12-12T19:53:41.877Z,66.57
2022-12-12T19:56:12.129Z,70.55
2022-12-12T19:58:39.045Z,67.85
2022-12-12T20:01:14.049Z,71.22
2022-12-12T20:03:40.681Z,80.45
2022-12-12T20:06:10.099Z,82.35
2022-12-12T20:08:37.444Z,82.40
2022-12-12T20:11:09.644Z,80.07
2022-12-12T20:13:37.138Z,90.05
2022-12-12T20:16:09.948Z,90.07
2022-12-12T20:18:36.551Z,91.68
2022-12-12T20:21:04.575Z,95.40
2022-12-12T20:23:33.177Z,105.18
2022-12-12T20:26:05.986Z,87.22
2022-12-12T20:28:32.641Z,88.05
2022-12-12T20:31:07.196Z,89.45
2022-12-12T20:33:34.405Z,91.20
2022-12-12T20:36:05.015Z,91.65
2022-12-12T20:38:33.634Z,81.53
2022-12-12T20:41:00.605Z,90.68
2022-12-12T20:43:28.322Z,94.50
2022-12-12T20:45:55.002Z,89.15
2022-12-12T20:48:21.729Z,84.07
2022-12-12T20:50:48.157Z,91.35
2022-12-12T20:53:14.561Z,88.85
2022-12-12T20:55:40.911Z,83.80
2022-12-12T20:58:07.286Z,89.57
2022-12-12T21:00:35.713Z,76.43
2022-12-12T21:03:02.175Z,83.63
2022-12-12T21:05:29.676Z,77.18
2022-12-12T21:07:56.199Z,76.65
2022-12-12T21:10:22.687Z,74.70
2022-12-12T21:12:49.077Z,72.68
2022-12-12T21:15:15.806Z,75.10
2022-12-12T21:17:42.520Z,67.60
2022-12-12T21:20:09.284Z,69.40
2022-12-12T21:22:35.709Z,71.05
2022-12-12T21:25:02.093Z,65.95
2022-12-12T21:27:29.090Z,66.50
2022-12-12T21:29:55.479Z,76.95
2022-12-12T21:32:21.956Z,70.75
2022-12-12T21:34:48.383Z,75.70
2022-12-12T21:37:14.807Z,72.90
2022-12-12T21:39:42.164Z,73.55
2022-12-12T21:42:08.549Z,73.40
2022-12-12T21:44:35.260Z,69.35
2022-12-12T21:47:01.865Z,68.43
2022-12-12T21:49:28.543Z,68.85
2022-12-12T21:52:03.705Z,68.85
2022-12-12T21:54:30.505Z,81.90
2022-12-12T21:57:00.324Z,81.72
2022-12-12T21:59:27.068Z,74.53
2022-12-12T22:01:55.254Z,61.83
2022-12-12T22:04:21.722Z,60.58
2022-12-12T22:06:48.186Z,60.72
2022-12-12T22:09:14.611Z,55.40
2022-12-12T22:11:50.518Z,62.53
2022-12-12T22:14:19.215Z,59.28
2022-12-12T22:16:45.649Z,55.78
2022-12-12T22:19:13.500Z,55.30
2022-12-12T22:21:39.934Z,57.28
2022-12-12T22:24:06.856Z,57.33
2022-12-12T22:26:36.703Z,64.45
2022-12-12T22:29:09.498Z,62.03
2022-12-12T22:31:37.645Z,77.72
2022-12-12T22:34:07.422Z,75.35
2022-12-12T22:36:37.409Z,73.60
2022-12-12T22:39:05.495Z,74.95
2022-12-12T22:41:32.536Z,71.40
2022-12-12T22:44:03.998Z,76.13
2022-12-12T22:46:30.658Z,76.40
2022-12-12T22:49:01.044Z,73.70
2022-12-12T22:51:29.901Z,64.47
2022-12-12T22:53:57.586Z,69.45
2022-12-12T22:56:24.307Z,68.57
2022-12-12T22:58:50.829Z,68.20
2022-12-12T23:01:19.413Z,72.78
2022-12-12T23:03:46.692Z,65.95
2022-12-12T23:06:14.822Z,64.65
2022-12-12T23:08:41.920Z,68.00
2022-12-12T23:11:11.467Z,70.68
2022-12-12T23:13:39.160Z,65.97
2022-12-12T23:16:07.775Z,66.88
2022-12-12T23:18:36.353Z,64.15
2022-12-12T23:21:03.269Z,60.65
2022-12-12T23:23:31.540Z,66.25
2022-12-12T23:26:03.306Z,62.45
2022-12-12T23:28:30.020Z,64.72
2022-12-12T23:30:57.064Z,62.58
2022-12-12T23:33:23.815Z,63.03
2022-12-12T23:35:50.490Z,67.00
2022-12-12T23:38:16.894Z,59.50
2022-12-12T23:40:43.612Z,59.38
2022-12-12T23:43:10.090Z,65.13
2022-12-12T23:45:37.838Z,58.53
2022-12-12T23:48:05.497Z,58.97
2022-12-12T23:50:32.538Z,57.72
2022-12-12T23:52:59.066Z,54.97
2022-12-12T23:55:25.622Z,57.25
2022-12-12T23:57:52.049Z,50.10
